AUA17L EDDN-LOWW
Flight info
| Callsign | AUA17L |
|---|---|
| Flight time | 0h 47m |
| Altitude | 29000 |
| Route | RODIS1G/28 RODIS L604 LAMSI DCT VENEN VENEN3W |
| Aircraft | A320/M-SDE3FGHIRWY/LB1 |
Departure
| Time | 2026-04-20 18:10 |
|---|---|
| Airport | Nuremberg Airport (EDDN) |
Arrival
| Time | 2026-04-20 18:57 |
|---|---|
| Airport | Vienna International Airport (LOWW) |
| Time | Latitude | Longitude | Altitude | Speed | Heading |
|---|---|---|---|---|---|
| 2026-04-20 17:41 | 49.49520 | 11.07725 | 1033 ft | 0 kts | 188° |
| 2026-04-20 18:00 | 49.49528 | 11.07726 | 1033 ft | 2 kts | 187° |
| 2026-04-20 18:00 | 49.49545 | 11.07730 | 1034 ft | 2 kts | 188° |
| 2026-04-20 18:01 | 49.49561 | 11.07734 | 1035 ft | 2 kts | 188° |
| 2026-04-20 18:01 | 49.49577 | 11.07732 | 1037 ft | 2 kts | 142° |
| 2026-04-20 18:01 | 49.49589 | 11.07713 | 1037 ft | 2 kts | 117° |
| 2026-04-20 18:01 | 49.49594 | 11.07693 | 1037 ft | 1 kts | 102° |
| 2026-04-20 18:02 | 49.49595 | 11.07688 | 1037 ft | 0 kts | 99° |
| 2026-04-20 18:05 | 49.49571 | 11.07936 | 1038 ft | 15 kts | 98° |
| 2026-04-20 18:05 | 49.49553 | 11.08105 | 1038 ft | 16 kts | 99° |
| 2026-04-20 18:05 | 49.49541 | 11.08226 | 1038 ft | 9 kts | 98° |
| 2026-04-20 18:06 | 49.49534 | 11.08299 | 1040 ft | 6 kts | 97° |
| 2026-04-20 18:06 | 49.49562 | 11.08355 | 1042 ft | 9 kts | 17° |
| 2026-04-20 18:06 | 49.49616 | 11.08424 | 1043 ft | 14 kts | 86° |
| 2026-04-20 18:06 | 49.49601 | 11.08595 | 1045 ft | 19 kts | 99° |
| 2026-04-20 18:07 | 49.49579 | 11.08812 | 1048 ft | 21 kts | 98° |
| 2026-04-20 18:07 | 49.49556 | 11.09047 | 1049 ft | 20 kts | 99° |
| 2026-04-20 18:07 | 49.49537 | 11.09235 | 1051 ft | 17 kts | 99° |
| 2026-04-20 18:07 | 49.49533 | 11.09360 | 1054 ft | 13 kts | 70° |
| 2026-04-20 18:08 | 49.49576 | 11.09452 | 1055 ft | 12 kts | 52° |
| 2026-04-20 18:08 | 49.49611 | 11.09523 | 1057 ft | 10 kts | 52° |
| 2026-04-20 18:08 | 49.49678 | 11.09575 | 1059 ft | 12 kts | 352° |
| 2026-04-20 18:08 | 49.49702 | 11.09508 | 1058 ft | 0 kts | 279° |
| 2026-04-20 18:09 | 49.49704 | 11.09494 | 1058 ft | 8 kts | 279° |
| 2026-04-20 18:10 | 49.49748 | 11.09047 | 1054 ft | 80 kts | 278° |
| 2026-04-20 18:10 | 49.49865 | 11.07856 | 1049 ft | 141 kts | 279° |
| 2026-04-20 18:10 | 49.50035 | 11.06152 | 1277 ft | 168 kts | 282° |
| 2026-04-20 18:10 | 49.50206 | 11.04362 | 2001 ft | 171 kts | 282° |
| 2026-04-20 18:11 | 49.50390 | 11.02551 | 2704 ft | 175 kts | 283° |
| 2026-04-20 18:11 | 49.50597 | 11.00624 | 3154 ft | 191 kts | 283° |
| 2026-04-20 18:11 | 49.50811 | 10.98481 | 3516 ft | 212 kts | 282° |
| 2026-04-20 18:11 | 49.51038 | 10.96130 | 3983 ft | 230 kts | 281° |
| 2026-04-20 18:12 | 49.51534 | 10.93762 | 4578 ft | 242 kts | 308° |
| 2026-04-20 18:12 | 49.52903 | 10.92245 | 5275 ft | 252 kts | 342° |
| 2026-04-20 18:12 | 49.54652 | 10.91859 | 6162 ft | 258 kts | 357° |
| 2026-04-20 18:12 | 49.56439 | 10.91945 | 7025 ft | 262 kts | 1° |
| 2026-04-20 18:13 | 49.58295 | 10.92174 | 7872 ft | 267 kts | 2° |
| 2026-04-20 18:13 | 49.60138 | 10.92398 | 8704 ft | 271 kts | 1° |
| 2026-04-20 18:13 | 49.62034 | 10.92579 | 9550 ft | 275 kts | 0° |
| 2026-04-20 18:13 | 49.63958 | 10.92710 | 10344 ft | 280 kts | 359° |
| 2026-04-20 18:14 | 49.65966 | 10.93144 | 10630 ft | 307 kts | 17° |
| 2026-04-20 18:14 | 49.67799 | 10.94995 | 11073 ft | 327 kts | 45° |
| 2026-04-20 18:14 | 49.68909 | 10.98099 | 11775 ft | 339 kts | 73° |
| 2026-04-20 18:14 | 49.68965 | 11.01758 | 12527 ft | 348 kts | 100° |
| 2026-04-20 18:15 | 49.68315 | 11.05382 | 13311 ft | 351 kts | 106° |
| 2026-04-20 18:15 | 49.67516 | 11.08965 | 14062 ft | 355 kts | 108° |
| 2026-04-20 18:15 | 49.66650 | 11.12540 | 14749 ft | 357 kts | 109° |
| 2026-04-20 18:15 | 49.65760 | 11.16140 | 15431 ft | 360 kts | 109° |
| 2026-04-20 18:16 | 49.64874 | 11.19779 | 15945 ft | 363 kts | 109° |
| 2026-04-20 18:16 | 49.64003 | 11.23438 | 16081 ft | 363 kts | 108° |
| 2026-04-20 18:16 | 49.63153 | 11.27102 | 16122 ft | 364 kts | 108° |
| 2026-04-20 18:16 | 49.62310 | 11.30803 | 16700 ft | 367 kts | 108° |
| 2026-04-20 18:17 | 49.61467 | 11.34529 | 17396 ft | 369 kts | 108° |
| 2026-04-20 18:17 | 49.60615 | 11.38277 | 18053 ft | 372 kts | 108° |
| 2026-04-20 18:17 | 49.59762 | 11.42002 | 18652 ft | 374 kts | 108° |
| 2026-04-20 18:17 | 49.58889 | 11.45795 | 19225 ft | 377 kts | 108° |
| 2026-04-20 18:18 | 49.58008 | 11.49613 | 19811 ft | 379 kts | 108° |
| 2026-04-20 18:18 | 49.57120 | 11.53449 | 20398 ft | 381 kts | 108° |
| 2026-04-20 18:18 | 49.56229 | 11.57302 | 20990 ft | 383 kts | 108° |
| 2026-04-20 18:18 | 49.55326 | 11.61225 | 21579 ft | 385 kts | 107° |
| 2026-04-20 18:19 | 49.54426 | 11.65122 | 22160 ft | 387 kts | 107° |
| 2026-04-20 18:19 | 49.53530 | 11.68989 | 22729 ft | 390 kts | 107° |
| 2026-04-20 18:19 | 49.52615 | 11.72923 | 23284 ft | 392 kts | 107° |
| 2026-04-20 18:19 | 49.51685 | 11.76902 | 23792 ft | 395 kts | 107° |
| 2026-04-20 18:20 | 49.50748 | 11.80900 | 24184 ft | 399 kts | 107° |
| 2026-04-20 18:20 | 49.49799 | 11.84942 | 24532 ft | 404 kts | 107° |
| 2026-04-20 18:20 | 49.48838 | 11.89034 | 24871 ft | 409 kts | 108° |
| 2026-04-20 18:20 | 49.47864 | 11.93173 | 25202 ft | 414 kts | 108° |
| 2026-04-20 18:21 | 49.46881 | 11.97355 | 25525 ft | 419 kts | 108° |
| 2026-04-20 18:21 | 49.45906 | 12.01547 | 25833 ft | 424 kts | 107° |
| 2026-04-20 18:21 | 49.44912 | 12.05847 | 26158 ft | 429 kts | 107° |
| 2026-04-20 18:21 | 49.43909 | 12.10177 | 26469 ft | 433 kts | 108° |
| 2026-04-20 18:22 | 49.42891 | 12.14561 | 26780 ft | 438 kts | 108° |
| 2026-04-20 18:22 | 49.41862 | 12.18987 | 27092 ft | 442 kts | 108° |
| 2026-04-20 18:22 | 49.40819 | 12.23444 | 27393 ft | 446 kts | 108° |
| 2026-04-20 18:22 | 49.39760 | 12.27959 | 27697 ft | 450 kts | 108° |
| 2026-04-20 18:23 | 49.38693 | 12.32503 | 27994 ft | 455 kts | 108° |
| 2026-04-20 18:23 | 49.37617 | 12.37087 | 28289 ft | 459 kts | 108° |
| 2026-04-20 18:23 | 49.36524 | 12.41733 | 28582 ft | 463 kts | 109° |
| 2026-04-20 18:23 | 49.35424 | 12.46389 | 28872 ft | 467 kts | 109° |
| 2026-04-20 18:24 | 49.34246 | 12.51056 | 29051 ft | 470 kts | 115° |
| 2026-04-20 18:24 | 49.32605 | 12.55299 | 29083 ft | 454 kts | 128° |
| 2026-04-20 18:24 | 49.28351 | 12.62197 | 29077 ft | 444 kts | 137° |
| 2026-04-20 18:25 | 49.23997 | 12.68924 | 29073 ft | 445 kts | 136° |
| 2026-04-20 18:25 | 49.19662 | 12.75709 | 29072 ft | 447 kts | 136° |
| 2026-04-20 18:26 | 49.15290 | 12.82486 | 29072 ft | 448 kts | 137° |
| 2026-04-20 18:26 | 49.10894 | 12.89255 | 29072 ft | 449 kts | 137° |
| 2026-04-20 18:27 | 49.06496 | 12.96004 | 29063 ft | 449 kts | 137° |
| 2026-04-20 18:27 | 49.02079 | 13.02774 | 29050 ft | 450 kts | 137° |
| 2026-04-20 18:28 | 48.97656 | 13.09549 | 29049 ft | 451 kts | 137° |
| 2026-04-20 18:28 | 48.93211 | 13.16315 | 29043 ft | 452 kts | 138° |
| 2026-04-20 18:29 | 48.88749 | 13.23075 | 29039 ft | 454 kts | 138° |
| 2026-04-20 18:29 | 48.84257 | 13.29870 | 29050 ft | 460 kts | 138° |
| 2026-04-20 18:30 | 48.79696 | 13.36761 | 29069 ft | 469 kts | 138° |
| 2026-04-20 18:30 | 48.75066 | 13.43744 | 29065 ft | 470 kts | 139° |
| 2026-04-20 18:31 | 48.70417 | 13.50760 | 29060 ft | 473 kts | 135° |
| 2026-04-20 18:31 | 48.68498 | 13.54820 | 29060 ft | 477 kts | 118° |
| 2026-04-20 18:31 | 48.67329 | 13.59504 | 29058 ft | 476 kts | 100° |
| 2026-04-20 18:32 | 48.66497 | 13.69389 | 29050 ft | 474 kts | 94° |
| 2026-04-20 18:32 | 48.65770 | 13.79265 | 29052 ft | 474 kts | 94° |
| 2026-04-20 18:33 | 48.65021 | 13.89172 | 29058 ft | 474 kts | 94° |
| 2026-04-20 18:33 | 48.64252 | 13.99080 | 29067 ft | 474 kts | 94° |
| 2026-04-20 18:34 | 48.63475 | 14.08935 | 29068 ft | 473 kts | 94° |
| 2026-04-20 18:34 | 48.62686 | 14.18814 | 29068 ft | 473 kts | 94° |
| 2026-04-20 18:35 | 48.61899 | 14.28664 | 29067 ft | 472 kts | 94° |
| 2026-04-20 18:35 | 48.61507 | 14.33574 | 28948 ft | 468 kts | 95° |
| 2026-04-20 18:35 | 48.61113 | 14.38417 | 28469 ft | 460 kts | 95° |
| 2026-04-20 18:36 | 48.60722 | 14.43178 | 27932 ft | 454 kts | 95° |
| 2026-04-20 18:36 | 48.60332 | 14.47885 | 27399 ft | 449 kts | 95° |
| 2026-04-20 18:36 | 48.59948 | 14.52539 | 26873 ft | 443 kts | 95° |
| 2026-04-20 18:36 | 48.59567 | 14.57134 | 26360 ft | 439 kts | 96° |
| 2026-04-20 18:37 | 48.59188 | 14.61683 | 25854 ft | 435 kts | 96° |
| 2026-04-20 18:37 | 48.58808 | 14.66205 | 25360 ft | 434 kts | 96° |
| 2026-04-20 18:37 | 48.58428 | 14.70711 | 24869 ft | 432 kts | 96° |
| 2026-04-20 18:37 | 48.58048 | 14.75208 | 24390 ft | 430 kts | 96° |
| 2026-04-20 18:38 | 48.57615 | 14.79664 | 23910 ft | 429 kts | 103° |
| 2026-04-20 18:38 | 48.56577 | 14.83845 | 23397 ft | 424 kts | 120° |
| 2026-04-20 18:38 | 48.55149 | 14.87720 | 22867 ft | 421 kts | 121° |
| 2026-04-20 18:38 | 48.53718 | 14.91550 | 22392 ft | 417 kts | 121° |
| 2026-04-20 18:39 | 48.52294 | 14.95338 | 21919 ft | 413 kts | 121° |
| 2026-04-20 18:39 | 48.50875 | 14.99097 | 21462 ft | 410 kts | 121° |
| 2026-04-20 18:39 | 48.49473 | 15.02805 | 21077 ft | 405 kts | 121° |
| 2026-04-20 18:39 | 48.48112 | 15.06404 | 20811 ft | 396 kts | 121° |
| 2026-04-20 18:40 | 48.46762 | 15.09974 | 20554 ft | 389 kts | 121° |
| 2026-04-20 18:40 | 48.45432 | 15.13493 | 20293 ft | 384 kts | 121° |
| 2026-04-20 18:40 | 48.44115 | 15.16978 | 20030 ft | 382 kts | 121° |
| 2026-04-20 18:40 | 48.42804 | 15.20442 | 19776 ft | 379 kts | 121° |
| 2026-04-20 18:41 | 48.41497 | 15.23890 | 19485 ft | 377 kts | 121° |
| 2026-04-20 18:41 | 48.40198 | 15.27307 | 19182 ft | 375 kts | 121° |
| 2026-04-20 18:41 | 48.38907 | 15.30697 | 18881 ft | 372 kts | 121° |
| 2026-04-20 18:41 | 48.37626 | 15.34064 | 18587 ft | 370 kts | 121° |
| 2026-04-20 18:42 | 48.36349 | 15.37414 | 18285 ft | 368 kts | 121° |
| 2026-04-20 18:42 | 48.35081 | 15.40731 | 17943 ft | 365 kts | 121° |
| 2026-04-20 18:42 | 48.33816 | 15.44036 | 17612 ft | 363 kts | 121° |
| 2026-04-20 18:42 | 48.32567 | 15.47293 | 17283 ft | 362 kts | 121° |
| 2026-04-20 18:43 | 48.31315 | 15.50563 | 16986 ft | 360 kts | 121° |
| 2026-04-20 18:43 | 48.30067 | 15.53820 | 16690 ft | 359 kts | 121° |
| 2026-04-20 18:43 | 48.28827 | 15.57058 | 16391 ft | 357 kts | 121° |
| 2026-04-20 18:43 | 48.27592 | 15.60278 | 16104 ft | 355 kts | 121° |
| 2026-04-20 18:44 | 48.26355 | 15.63484 | 15818 ft | 354 kts | 121° |
| 2026-04-20 18:44 | 48.25122 | 15.66670 | 15533 ft | 352 kts | 121° |
| 2026-04-20 18:44 | 48.23893 | 15.69842 | 15249 ft | 351 kts | 121° |
| 2026-04-20 18:44 | 48.22673 | 15.72995 | 14959 ft | 349 kts | 121° |
| 2026-04-20 18:45 | 48.21457 | 15.76139 | 14692 ft | 348 kts | 121° |
| 2026-04-20 18:45 | 48.20248 | 15.79264 | 14416 ft | 346 kts | 121° |
| 2026-04-20 18:45 | 48.19039 | 15.82380 | 14142 ft | 345 kts | 121° |
| 2026-04-20 18:45 | 48.17835 | 15.85475 | 13778 ft | 343 kts | 121° |
| 2026-04-20 18:46 | 48.16636 | 15.88551 | 13307 ft | 340 kts | 122° |
| 2026-04-20 18:46 | 48.15445 | 15.91605 | 12848 ft | 338 kts | 122° |
| 2026-04-20 18:46 | 48.14260 | 15.94639 | 12390 ft | 338 kts | 121° |
| 2026-04-20 18:46 | 48.13071 | 15.97674 | 11946 ft | 338 kts | 122° |
| 2026-04-20 18:47 | 48.12287 | 15.99679 | 11650 ft | 337 kts | 122° |
| 2026-04-20 18:47 | 48.10745 | 16.03627 | 11067 ft | 325 kts | 121° |
| 2026-04-20 18:47 | 48.09615 | 16.06521 | 10642 ft | 319 kts | 121° |
| 2026-04-20 18:47 | 48.08510 | 16.09349 | 10214 ft | 312 kts | 121° |
| 2026-04-20 18:48 | 48.07774 | 16.11229 | 9919 ft | 309 kts | 121° |
| 2026-04-20 18:48 | 48.06688 | 16.13996 | 9477 ft | 308 kts | 121° |
| 2026-04-20 18:48 | 48.05610 | 16.16738 | 9015 ft | 304 kts | 121° |
| 2026-04-20 18:48 | 48.04554 | 16.19419 | 8566 ft | 301 kts | 121° |
| 2026-04-20 18:49 | 48.03484 | 16.22135 | 8113 ft | 298 kts | 121° |
| 2026-04-20 18:49 | 48.02452 | 16.24754 | 7664 ft | 295 kts | 121° |
| 2026-04-20 18:49 | 48.01403 | 16.27417 | 7241 ft | 292 kts | 120° |
| 2026-04-20 18:49 | 48.00432 | 16.30018 | 6828 ft | 289 kts | 116° |
| 2026-04-20 18:50 | 47.99533 | 16.32697 | 6395 ft | 287 kts | 115° |
| 2026-04-20 18:50 | 47.98652 | 16.35346 | 5952 ft | 283 kts | 115° |
| 2026-04-20 18:50 | 47.97776 | 16.37962 | 5501 ft | 280 kts | 115° |
| 2026-04-20 18:50 | 47.96905 | 16.40551 | 5084 ft | 278 kts | 115° |
| 2026-04-20 18:51 | 47.96034 | 16.43122 | 4702 ft | 277 kts | 115° |
| 2026-04-20 18:51 | 47.95164 | 16.45670 | 4308 ft | 275 kts | 115° |
| 2026-04-20 18:51 | 47.94301 | 16.48200 | 3913 ft | 273 kts | 114° |
| 2026-04-20 18:51 | 47.93731 | 16.50856 | 3539 ft | 268 kts | 98° |
| 2026-04-20 18:52 | 47.93448 | 16.53589 | 3169 ft | 265 kts | 96° |
| 2026-04-20 18:52 | 47.93200 | 16.56226 | 2996 ft | 245 kts | 95° |
| 2026-04-20 18:52 | 47.92971 | 16.58615 | 2996 ft | 221 kts | 95° |
| 2026-04-20 18:52 | 47.92934 | 16.60760 | 2994 ft | 197 kts | 70° |
| 2026-04-20 18:53 | 47.93543 | 16.62509 | 3006 ft | 187 kts | 46° |
| 2026-04-20 18:53 | 47.94517 | 16.63727 | 3006 ft | 181 kts | 24° |
| 2026-04-20 18:53 | 47.95683 | 16.64296 | 3005 ft | 170 kts | 4° |
| 2026-04-20 18:53 | 47.96802 | 16.64212 | 3038 ft | 158 kts | 346° |
| 2026-04-20 18:54 | 47.97836 | 16.63786 | 2860 ft | 151 kts | 343° |
| 2026-04-20 18:54 | 47.98834 | 16.63364 | 2678 ft | 147 kts | 343° |
| 2026-04-20 18:54 | 47.99808 | 16.62952 | 2487 ft | 145 kts | 344° |
| 2026-04-20 18:54 | 48.00775 | 16.62545 | 2298 ft | 144 kts | 344° |
| 2026-04-20 18:55 | 48.01726 | 16.62144 | 2137 ft | 138 kts | 343° |
| 2026-04-20 18:55 | 48.02631 | 16.61763 | 1936 ft | 135 kts | 343° |
| 2026-04-20 18:55 | 48.03531 | 16.61384 | 1752 ft | 133 kts | 344° |
| 2026-04-20 18:55 | 48.04418 | 16.61010 | 1559 ft | 133 kts | 343° |
| 2026-04-20 18:56 | 48.05310 | 16.60634 | 1381 ft | 133 kts | 344° |
| 2026-04-20 18:56 | 48.06209 | 16.60255 | 1186 ft | 135 kts | 343° |
| 2026-04-20 18:56 | 48.07114 | 16.59873 | 1004 ft | 135 kts | 345° |
| 2026-04-20 18:56 | 48.08019 | 16.59490 | 822 ft | 135 kts | 345° |
| 2026-04-20 18:57 | 48.08919 | 16.59109 | 650 ft | 134 kts | 344° |
| 2026-04-20 18:57 | 48.09739 | 16.58767 | 622 ft | 101 kts | 345° |
| 2026-04-20 18:57 | 48.10260 | 16.58542 | 615 ft | 63 kts | 345° |
| 2026-04-20 18:57 | 48.10638 | 16.58385 | 621 ft | 47 kts | 344° |
| 2026-04-20 18:58 | 48.10922 | 16.58263 | 616 ft | 27 kts | 340° |
| 2026-04-20 18:58 | 48.11046 | 16.58062 | 613 ft | 27 kts | 295° |
| 2026-04-20 18:58 | 48.11121 | 16.57829 | 617 ft | 25 kts | 296° |
| 2026-04-20 18:58 | 48.11198 | 16.57594 | 612 ft | 25 kts | 296° |
| 2026-04-20 18:59 | 48.11277 | 16.57350 | 620 ft | 27 kts | 296° |
| 2026-04-20 18:59 | 48.11359 | 16.57099 | 621 ft | 27 kts | 295° |
| 2026-04-20 18:59 | 48.11430 | 16.56888 | 618 ft | 14 kts | 316° |
| 2026-04-20 18:59 | 48.11527 | 16.56914 | 610 ft | 15 kts | 25° |
| 2026-04-20 19:00 | 48.11598 | 16.56864 | 610 ft | 10 kts | 302° |
| 2026-04-20 19:00 | 48.11649 | 16.56881 | 615 ft | 7 kts | 27° |
| 2026-04-20 19:00 | 48.11673 | 16.56899 | 610 ft | 0 kts | 25° |